createdAt,value
2018-07-13T00:00:16.831Z,13.47
2018-07-13T00:02:45.589Z,11.57
2018-07-13T00:05:14.290Z,13.43
2018-07-13T00:07:42.998Z,13.63
2018-07-13T00:10:11.804Z,13.87
2018-07-13T00:12:40.508Z,13.43
2018-07-13T00:15:10.553Z,13.67
2018-07-13T00:17:39.517Z,14.87
2018-07-13T00:20:08.580Z,12.57
2018-07-13T00:22:37.293Z,14.70
2018-07-13T00:25:06.034Z,14.03
2018-07-13T00:27:34.736Z,14.50
2018-07-13T00:30:03.481Z,14.40
2018-07-13T00:32:32.207Z,14.73
2018-07-13T00:35:00.961Z,14.83
2018-07-13T00:37:29.684Z,13.50
2018-07-13T00:39:58.554Z,12.27
2018-07-13T00:42:27.266Z,13.00
2018-07-13T00:44:56.115Z,11.47
2018-07-13T00:47:24.830Z,13.57
2018-07-13T00:49:53.524Z,13.30
2018-07-13T00:52:22.360Z,12.87
2018-07-13T00:54:51.065Z,13.27
2018-07-13T00:57:19.778Z,12.93
2018-07-13T00:59:48.605Z,13.93
2018-07-13T01:02:17.315Z,14.60
2018-07-13T01:04:46.060Z,14.50
2018-07-13T01:07:14.790Z,12.73
2018-07-13T01:09:43.538Z,13.00
2018-07-13T01:12:12.258Z,14.00
2018-07-13T01:14:40.985Z,12.77
2018-07-13T01:17:09.709Z,13.53
2018-07-13T01:19:38.418Z,13.50
2018-07-13T01:22:07.129Z,13.50
2018-07-13T01:24:35.881Z,13.37
2018-07-13T01:27:04.578Z,12.60
2018-07-13T01:29:33.311Z,14.90
2018-07-13T01:32:02.040Z,15.00
2018-07-13T01:34:30.833Z,14.13
2018-07-13T01:36:59.573Z,15.10
2018-07-13T01:39:28.255Z,16.33
2018-07-13T01:41:56.942Z,18.00
2018-07-13T01:44:25.697Z,13.87
2018-07-13T01:46:54.392Z,13.30
2018-07-13T01:49:23.099Z,13.53
2018-07-13T01:51:51.811Z,12.80
2018-07-13T01:54:20.528Z,15.07
2018-07-13T01:56:49.227Z,12.97
2018-07-13T01:59:17.931Z,13.63
2018-07-13T02:01:46.675Z,14.33
2018-07-13T02:04:15.518Z,15.77
2018-07-13T02:06:44.358Z,14.60
2018-07-13T02:09:13.069Z,14.63
2018-07-13T02:11:41.782Z,15.23
2018-07-13T02:14:10.481Z,13.77
2018-07-13T02:16:39.177Z,14.63
2018-07-13T02:19:08.103Z,15.10
2018-07-13T02:21:36.838Z,15.40
2018-07-13T02:24:05.541Z,14.50
2018-07-13T02:26:34.250Z,13.87
2018-07-13T02:29:02.958Z,14.00
2018-07-13T02:31:31.683Z,13.07
2018-07-13T02:34:00.468Z,12.30
2018-07-13T02:36:29.149Z,14.43
2018-07-13T02:38:58.142Z,13.70
2018-07-13T02:41:27.005Z,15.23
2018-07-13T02:43:55.715Z,15.00
2018-07-13T02:46:24.453Z,12.97
2018-07-13T02:48:53.184Z,12.67
2018-07-13T02:51:21.927Z,13.30
2018-07-13T02:53:50.703Z,11.50
2018-07-13T02:56:19.457Z,13.10
2018-07-13T02:58:48.311Z,12.10
2018-07-13T03:01:17.155Z,13.80
2018-07-13T03:03:45.854Z,12.40
2018-07-13T03:06:14.551Z,14.90
2018-07-13T03:08:43.318Z,12.90
2018-07-13T03:11:12.081Z,13.60
2018-07-13T03:13:40.773Z,11.50
2018-07-13T03:16:09.472Z,13.60
2018-07-13T03:18:38.193Z,11.63
2018-07-13T03:21:06.938Z,13.53
2018-07-13T03:23:35.719Z,13.70
2018-07-13T03:26:04.457Z,12.33
2018-07-13T03:28:33.210Z,12.20
2018-07-13T03:31:01.941Z,11.80
2018-07-13T03:33:30.693Z,11.43
2018-07-13T03:35:59.458Z,10.83
2018-07-13T03:38:28.268Z,11.30
2018-07-13T03:40:56.920Z,9.40
2018-07-13T03:43:25.634Z,9.97
2018-07-13T03:45:54.331Z,11.40
2018-07-13T03:48:23.084Z,9.83
2018-07-13T03:50:51.826Z,10.63
2018-07-13T03:53:20.540Z,7.63
2018-07-13T03:55:49.241Z,7.80
2018-07-13T03:58:17.958Z,6.53
2018-07-13T04:00:46.639Z,6.40
2018-07-13T04:03:15.330Z,6.23
2018-07-13T04:05:44.021Z,5.77
2018-07-13T04:08:12.709Z,4.80
2018-07-13T04:10:41.401Z,6.20
2018-07-13T04:13:10.174Z,6.10
2018-07-13T04:15:38.894Z,5.87
2018-07-13T04:18:12.057Z,6.10
2018-07-13T04:20:40.778Z,6.67
2018-07-13T04:23:09.501Z,7.10
2018-07-13T04:25:38.209Z,5.90
2018-07-13T04:28:06.929Z,6.20
2018-07-13T04:30:35.678Z,5.27
2018-07-13T04:33:04.406Z,6.77
2018-07-13T04:35:33.102Z,5.47
2018-07-13T04:38:01.856Z,7.00
2018-07-13T04:40:30.577Z,6.90
2018-07-13T04:42:59.354Z,6.00
2018-07-13T04:45:28.070Z,5.73
2018-07-13T04:47:56.787Z,6.50
2018-07-13T04:50:25.728Z,6.20
2018-07-13T04:52:54.772Z,5.13
2018-07-13T04:55:23.648Z,6.10
2018-07-13T04:57:52.464Z,5.80
2018-07-13T05:00:21.800Z,6.50
2018-07-13T05:02:50.561Z,6.50
2018-07-13T05:05:19.279Z,6.60
2018-07-13T05:07:47.985Z,6.60
2018-07-13T05:10:16.718Z,6.43
2018-07-13T05:12:45.421Z,6.10
2018-07-13T05:15:14.121Z,6.37
2018-07-13T05:17:42.829Z,8.23
2018-07-13T05:20:11.565Z,5.67
2018-07-13T05:22:40.294Z,6.73
2018-07-13T05:25:09.613Z,7.13
2018-07-13T05:27:38.317Z,6.10
2018-07-13T05:30:07.578Z,6.53
2018-07-13T05:32:36.593Z,7.00
2018-07-13T05:35:05.355Z,5.17
2018-07-13T05:37:34.185Z,5.90
2018-07-13T05:40:04.093Z,6.83
2018-07-13T05:42:32.801Z,7.00
2018-07-13T05:45:01.529Z,6.00
2018-07-13T05:47:30.481Z,7.90
2018-07-13T05:49:59.190Z,5.92
2018-07-13T05:52:28.082Z,5.78
2018-07-13T05:54:57.779Z,7.92
2018-07-13T05:57:26.473Z,7.62
2018-07-13T05:59:55.268Z,7.55
2018-07-13T06:02:24.044Z,7.67
2018-07-13T06:04:52.746Z,8.73
2018-07-13T06:07:21.453Z,8.58
2018-07-13T06:09:50.298Z,8.03
2018-07-13T06:12:18.984Z,7.95
2018-07-13T06:14:47.842Z,8.25
2018-07-13T06:17:16.465Z,9.10
2018-07-13T06:19:45.189Z,7.53
2018-07-13T06:22:13.921Z,8.10
2018-07-13T06:24:42.677Z,8.78
2018-07-13T06:27:11.621Z,10.90
2018-07-13T06:29:40.327Z,8.23
2018-07-13T06:32:09.051Z,8.95
2018-07-13T06:34:37.770Z,9.05
2018-07-13T06:37:06.645Z,9.68
2018-07-13T06:39:35.354Z,10.05
2018-07-13T06:42:04.119Z,8.90
2018-07-13T06:44:32.840Z,9.35
2018-07-13T06:47:01.554Z,9.18
2018-07-13T06:49:30.342Z,11.20
2018-07-13T06:51:59.069Z,10.40
2018-07-13T06:54:27.794Z,10.13
2018-07-13T06:56:56.531Z,10.67
2018-07-13T06:59:25.278Z,11.00
2018-07-13T07:01:53.985Z,10.73
2018-07-13T07:04:26.269Z,9.43
2018-07-13T07:06:55.679Z,11.17
2018-07-13T07:09:25.113Z,10.43
2018-07-13T07:12:16.942Z,9.70
2018-07-13T07:14:45.797Z,10.38
2018-07-13T07:17:14.584Z,10.25
2018-07-13T07:19:43.422Z,9.98
2018-07-13T07:22:12.259Z,9.75
2018-07-13T07:24:40.974Z,9.40
2018-07-13T07:27:09.729Z,10.15
2018-07-13T07:29:38.540Z,9.08
2018-07-13T07:32:07.443Z,11.45
2018-07-13T07:34:36.284Z,10.25
2018-07-13T07:37:05.157Z,12.10
2018-07-13T07:39:34.092Z,10.05
2018-07-13T07:42:02.797Z,9.90
2018-07-13T07:44:31.538Z,12.25
2018-07-13T07:47:00.246Z,9.50
2018-07-13T07:49:28.950Z,10.95
2018-07-13T07:51:57.688Z,10.13
2018-07-13T07:54:26.391Z,9.08
2018-07-13T07:56:55.149Z,10.70
2018-07-13T07:59:23.864Z,9.43
2018-07-13T08:01:52.587Z,10.03
2018-07-13T08:04:21.318Z,10.68
2018-07-13T08:06:50.248Z,10.75
2018-07-13T08:09:18.842Z,9.48
2018-07-13T08:11:47.549Z,10.38
2018-07-13T08:14:16.643Z,9.53
2018-07-13T08:16:45.132Z,10.30
2018-07-13T08:19:14.117Z,10.88
2018-07-13T08:21:44.703Z,11.22
2018-07-13T08:24:19.806Z,12.00
2018-07-13T08:26:49.578Z,10.23
2018-07-13T08:29:20.895Z,11.65
2018-07-13T08:31:50.978Z,11.00
2018-07-13T08:34:21.903Z,12.37
2018-07-13T08:36:50.816Z,11.85
2018-07-13T08:39:19.570Z,10.55
2018-07-13T08:41:48.659Z,10.40
2018-07-13T08:44:17.572Z,10.75
2018-07-13T08:46:46.440Z,11.12
2018-07-13T08:49:15.406Z,11.43
2018-07-13T08:51:44.910Z,11.38
2018-07-13T08:54:13.718Z,12.45
2018-07-13T08:56:44.149Z,11.88
2018-07-13T08:59:13.633Z,10.90
2018-07-13T09:01:42.563Z,11.40
2018-07-13T09:04:11.339Z,13.18
2018-07-13T09:06:40.195Z,13.22
2018-07-13T09:09:14.601Z,10.95
2018-07-13T09:11:43.372Z,11.95
2018-07-13T09:14:12.267Z,13.08
2018-07-13T09:16:41.143Z,12.73
2018-07-13T09:19:09.988Z,12.65
2018-07-13T09:21:38.903Z,11.93
2018-07-13T09:24:07.822Z,14.93
2018-07-13T09:26:36.702Z,10.50
2018-07-13T09:29:05.535Z,13.15
2018-07-13T09:31:34.340Z,11.25
2018-07-13T09:34:03.158Z,11.35
2018-07-13T09:36:31.926Z,10.95
2018-07-13T09:39:00.803Z,12.33
2018-07-13T09:41:29.658Z,11.25
2018-07-13T09:43:58.534Z,10.45
2018-07-13T09:46:28.178Z,9.93
2018-07-13T09:48:57.089Z,9.20
2018-07-13T09:51:25.906Z,9.60
2018-07-13T09:53:54.837Z,8.18
2018-07-13T09:56:23.567Z,7.97
2018-07-13T09:58:52.333Z,7.50
2018-07-13T10:01:22.405Z,7.85
2018-07-13T10:03:51.157Z,7.03
2018-07-13T10:06:19.910Z,6.92
2018-07-13T10:08:48.710Z,7.22
2018-07-13T10:11:17.423Z,7.15
2018-07-13T10:13:46.243Z,6.60
2018-07-13T10:16:15.084Z,6.00
2018-07-13T10:18:44.008Z,7.55
2018-07-13T10:21:12.848Z,6.55
2018-07-13T10:23:42.492Z,6.58
2018-07-13T10:26:14.995Z,5.78
2018-07-13T10:28:44.008Z,6.42
2018-07-13T10:31:13.978Z,5.65
2018-07-13T10:33:43.048Z,10.53
2018-07-13T10:36:14.614Z,5.72
2018-07-13T10:38:43.477Z,5.10
2018-07-13T10:41:12.362Z,4.92
2018-07-13T10:43:41.472Z,6.03
2018-07-13T10:46:10.373Z,5.22
2018-07-13T10:48:39.161Z,7.00
2018-07-13T10:51:08.284Z,5.40
2018-07-13T10:53:37.094Z,6.83
2018-07-13T10:56:05.939Z,5.78
2018-07-13T10:58:34.803Z,5.70
2018-07-13T11:01:03.568Z,6.95
2018-07-13T11:03:32.395Z,6.67
2018-07-13T11:06:01.189Z,6.25
2018-07-13T11:08:30.014Z,5.85
2018-07-13T11:10:58.773Z,7.95
2018-07-13T11:13:27.682Z,6.83
2018-07-13T11:15:56.444Z,5.97
2018-07-13T11:18:25.171Z,6.97
2018-07-13T11:20:53.984Z,6.25
2018-07-13T11:23:22.769Z,6.03
2018-07-13T11:25:51.604Z,5.70
2018-07-13T11:28:20.434Z,7.50
2018-07-13T11:30:49.235Z,6.65
2018-07-13T11:33:18.060Z,5.83
2018-07-13T11:35:46.842Z,7.08
2018-07-13T11:38:15.702Z,6.12
2018-07-13T11:40:44.510Z,7.35
2018-07-13T11:43:13.365Z,6.33
2018-07-13T11:45:42.108Z,6.22
2018-07-13T11:48:10.854Z,7.85
2018-07-13T11:50:39.670Z,6.33
2018-07-13T11:53:08.430Z,6.40
2018-07-13T11:55:37.211Z,7.42
2018-07-13T11:58:05.932Z,6.50
2018-07-13T12:00:34.712Z,7.37
2018-07-13T12:03:04.202Z,8.05
2018-07-13T12:05:32.934Z,7.83
2018-07-13T12:08:01.659Z,8.08
2018-07-13T12:10:30.388Z,8.35
2018-07-13T12:12:59.112Z,7.95
2018-07-13T12:15:27.828Z,7.97
2018-07-13T12:17:56.546Z,8.15
2018-07-13T12:20:25.261Z,9.10
2018-07-13T12:22:54.061Z,9.20
2018-07-13T12:25:22.766Z,7.40
2018-07-13T12:27:51.546Z,8.28
2018-07-13T12:30:20.281Z,8.35
2018-07-13T12:32:49.029Z,10.35
2018-07-13T12:35:17.801Z,9.83
2018-07-13T12:37:46.526Z,9.30
2018-07-13T12:40:15.302Z,9.20
2018-07-13T12:42:44.028Z,9.70
2018-07-13T12:45:12.750Z,8.60
2018-07-13T12:47:41.495Z,10.13
2018-07-13T12:50:10.267Z,9.37
2018-07-13T12:52:39.017Z,9.97
2018-07-13T12:55:07.889Z,8.80
2018-07-13T12:57:36.675Z,8.97
2018-07-13T13:00:05.531Z,9.97
2018-07-13T13:02:34.285Z,8.10
2018-07-13T13:05:03.095Z,8.57
2018-07-13T13:07:31.994Z,8.23
2018-07-13T13:10:00.729Z,8.40
2018-07-13T13:12:29.501Z,8.80
2018-07-13T13:14:58.299Z,8.47
2018-07-13T13:17:27.048Z,9.17
2018-07-13T13:22:29.715Z,7.20
2018-07-13T13:24:58.456Z,8.87
2018-07-13T13:27:27.620Z,8.50
2018-07-13T13:29:56.351Z,7.87
2018-07-13T13:32:25.397Z,8.20
2018-07-13T13:34:54.435Z,7.40
2018-07-13T13:37:23.178Z,7.80
2018-07-13T13:39:51.954Z,7.10
2018-07-13T13:42:20.744Z,7.57
2018-07-13T13:44:49.467Z,8.13
2018-07-13T13:47:18.274Z,7.90
2018-07-13T13:49:46.999Z,6.57
2018-07-13T13:52:15.727Z,6.80
2018-07-13T13:54:44.454Z,6.30
2018-07-13T13:57:13.201Z,7.13
2018-07-13T13:59:41.966Z,6.20
2018-07-13T14:02:10.712Z,5.63
2018-07-13T14:04:39.479Z,5.60
2018-07-13T14:07:08.239Z,5.30
2018-07-13T14:09:36.933Z,7.10
2018-07-13T14:12:05.766Z,5.97
2018-07-13T14:14:34.512Z,4.60
2018-07-13T14:17:03.477Z,4.90
2018-07-13T14:19:32.217Z,5.63
2018-07-13T14:22:00.922Z,7.37
2018-07-13T14:24:29.717Z,6.07
2018-07-13T14:26:58.450Z,6.40
2018-07-13T14:29:27.169Z,6.83
2018-07-13T14:31:55.957Z,6.93
2018-07-13T14:34:24.699Z,7.50
2018-07-13T14:36:53.487Z,8.57
2018-07-13T14:39:22.240Z,7.17
2018-07-13T14:41:50.935Z,7.03
2018-07-13T14:44:19.688Z,6.17
2018-07-13T14:46:48.478Z,7.10
2018-07-13T14:49:17.570Z,5.20
2018-07-13T14:51:46.323Z,6.43
2018-07-13T14:54:15.160Z,5.13
2018-07-13T14:56:43.870Z,3.73
2018-07-13T14:59:12.586Z,4.33
2018-07-13T15:01:41.513Z,4.33
2018-07-13T15:04:10.232Z,5.30
2018-07-13T15:06:39.112Z,5.23
2018-07-13T15:09:07.979Z,4.70
2018-07-13T15:11:36.695Z,4.53
2018-07-13T15:14:05.524Z,3.40
2018-07-13T15:16:34.218Z,4.73
2018-07-13T15:19:03.141Z,3.60
2018-07-13T15:21:31.847Z,3.00
2018-07-13T15:24:00.577Z,4.00
2018-07-13T15:26:29.342Z,4.07
2018-07-13T15:28:58.264Z,3.60
2018-07-13T15:31:27.038Z,4.63
2018-07-13T15:33:55.774Z,4.90
2018-07-13T15:36:24.508Z,3.77
2018-07-13T15:38:53.310Z,4.67
2018-07-13T15:41:22.038Z,4.73
2018-07-13T15:43:50.866Z,4.70
2018-07-13T15:46:19.636Z,3.90
2018-07-13T15:48:48.366Z,4.10
2018-07-13T15:51:17.247Z,5.13
2018-07-13T15:53:45.982Z,5.10
2018-07-13T15:56:14.699Z,5.70
2018-07-13T15:58:43.554Z,5.40
2018-07-13T16:01:12.211Z,5.97
2018-07-13T16:03:41.004Z,5.57
2018-07-13T16:06:09.759Z,6.17
2018-07-13T16:08:38.540Z,5.90
2018-07-13T16:11:07.421Z,6.90
2018-07-13T16:13:36.148Z,6.27
2018-07-13T16:16:04.932Z,6.30
2018-07-13T16:18:33.664Z,6.53
2018-07-13T16:21:02.383Z,6.13
2018-07-13T16:23:31.194Z,5.53
2018-07-13T16:25:59.940Z,7.10
2018-07-13T16:28:28.738Z,5.83
2018-07-13T16:30:57.463Z,6.27
2018-07-13T16:33:26.628Z,7.10
2018-07-13T16:35:55.617Z,6.30
2018-07-13T16:38:24.358Z,6.93
2018-07-13T16:40:53.308Z,9.13
2018-07-13T16:43:22.088Z,6.67
2018-07-13T16:45:50.901Z,10.07
2018-07-13T16:48:19.689Z,7.17
2018-07-13T16:50:48.444Z,7.20
2018-07-13T16:53:17.208Z,8.50
2018-07-13T16:55:45.983Z,8.30
2018-07-13T16:58:14.724Z,8.80
2018-07-13T17:00:43.474Z,11.63
2018-07-13T17:03:12.283Z,8.93
2018-07-13T17:05:41.015Z,6.60
2018-07-13T17:08:09.981Z,6.83
2018-07-13T17:10:38.702Z,7.90
2018-07-13T17:13:07.408Z,9.13
2018-07-13T17:15:36.442Z,8.00
2018-07-13T17:18:05.240Z,7.07
2018-07-13T17:20:34.307Z,8.07
2018-07-13T17:23:02.918Z,7.10
2018-07-13T17:25:31.887Z,7.80
2018-07-13T17:28:00.848Z,10.40
2018-07-13T17:30:29.575Z,11.73
2018-07-13T17:32:58.317Z,10.50
2018-07-13T17:35:27.110Z,9.43
2018-07-13T17:37:55.957Z,10.13
2018-07-13T17:40:24.728Z,9.70
2018-07-13T17:42:53.848Z,9.50
2018-07-13T17:45:22.541Z,7.67
2018-07-13T17:47:51.306Z,9.57
2018-07-13T17:50:20.009Z,9.57
2018-07-13T17:52:48.726Z,8.83
2018-07-13T17:55:17.437Z,19.43
2018-07-13T17:57:46.181Z,12.03
2018-07-13T18:00:14.968Z,8.40
2018-07-13T18:02:43.717Z,11.53
2018-07-13T18:05:12.470Z,13.50
2018-07-13T18:07:41.227Z,8.63
2018-07-13T18:10:09.985Z,11.07
2018-07-13T18:12:38.891Z,10.13
2018-07-13T18:15:07.617Z,9.60
2018-07-13T18:17:36.355Z,8.57
2018-07-13T18:20:05.099Z,10.20
2018-07-13T18:22:33.862Z,7.70
2018-07-13T18:25:02.637Z,10.73
2018-07-13T18:27:31.397Z,10.63
2018-07-13T18:30:00.126Z,9.70
2018-07-13T18:32:28.867Z,9.00
2018-07-13T18:34:57.672Z,9.20
2018-07-13T18:37:26.476Z,10.70
2018-07-13T18:39:55.416Z,9.73
2018-07-13T18:42:24.193Z,8.87
2018-07-13T18:44:52.952Z,9.60
2018-07-13T18:47:21.735Z,9.60
2018-07-13T18:49:50.536Z,13.20
2018-07-13T18:52:19.291Z,10.90
2018-07-13T18:54:48.048Z,12.37
2018-07-13T18:57:16.808Z,12.47
2018-07-13T18:59:45.530Z,13.20
2018-07-13T19:02:14.322Z,12.80
2018-07-13T19:04:43.084Z,14.33
2018-07-13T19:07:11.839Z,11.87
2018-07-13T19:09:40.679Z,10.60
2018-07-13T19:12:09.432Z,11.20
2018-07-13T19:14:38.264Z,11.33
2018-07-13T19:17:07.046Z,10.60
2018-07-13T19:19:35.884Z,12.63
2018-07-13T19:22:04.745Z,11.93
2018-07-13T19:24:33.559Z,12.13
2018-07-13T19:27:07.588Z,11.27
2018-07-13T19:29:36.367Z,20.33
2018-07-13T19:32:05.132Z,35.73
2018-07-13T19:34:33.921Z,16.70
2018-07-13T19:37:02.726Z,16.40
2018-07-13T19:39:31.660Z,12.40
2018-07-13T19:42:00.447Z,14.33
2018-07-13T19:44:29.196Z,12.50
2018-07-13T19:46:57.962Z,14.80
2018-07-13T19:49:26.722Z,14.17
2018-07-13T19:51:55.445Z,17.40
2018-07-13T19:54:24.210Z,14.80
2018-07-13T19:56:52.972Z,13.30
2018-07-13T19:59:21.924Z,14.27
2018-07-13T20:01:50.681Z,15.67
2018-07-13T20:04:19.444Z,16.10
2018-07-13T20:06:48.239Z,17.73
2018-07-13T20:09:17.026Z,16.07
2018-07-13T20:11:45.809Z,15.40
2018-07-13T20:14:14.636Z,16.20
2018-07-13T20:16:43.581Z,17.77
2018-07-13T20:19:12.445Z,20.50
2018-07-13T20:21:41.211Z,17.63
2018-07-13T20:24:10.041Z,19.33
2018-07-13T20:26:38.801Z,20.63
2018-07-13T20:29:07.591Z,21.63
2018-07-13T20:31:36.371Z,26.50
2018-07-13T20:34:05.097Z,19.70
2018-07-13T20:36:33.865Z,19.10
2018-07-13T20:39:02.722Z,18.57
2018-07-13T20:41:31.442Z,17.70
2018-07-13T20:44:00.204Z,19.10
2018-07-13T20:46:28.918Z,15.13
2018-07-13T20:48:57.625Z,16.50
2018-07-13T20:51:26.411Z,18.23
2018-07-13T20:53:55.125Z,19.20
2018-07-13T20:56:23.911Z,19.43
2018-07-13T20:58:52.657Z,19.53
2018-07-13T21:01:21.404Z,18.00
2018-07-13T21:03:50.156Z,19.73
2018-07-13T21:06:18.886Z,17.03
2018-07-13T21:08:47.645Z,18.47
2018-07-13T21:11:16.350Z,21.03
2018-07-13T21:13:45.070Z,19.67
2018-07-13T21:16:13.806Z,18.33
2018-07-13T21:18:46.835Z,17.73
2018-07-13T21:21:19.062Z,20.90
2018-07-13T21:23:51.201Z,19.67
2018-07-13T21:26:23.631Z,19.17
2018-07-13T21:28:52.453Z,19.10
2018-07-13T21:31:21.197Z,17.63
2018-07-13T21:33:50.044Z,18.47
2018-07-13T21:36:18.760Z,18.90
2018-07-13T21:38:47.590Z,17.87
2018-07-13T21:41:16.354Z,19.80
2018-07-13T21:43:45.089Z,19.20
2018-07-13T21:46:16.802Z,17.63
2018-07-13T21:48:45.591Z,17.23
2018-07-13T21:51:14.382Z,20.50
2018-07-13T21:53:43.218Z,19.93
2018-07-13T21:56:11.969Z,19.40
2018-07-13T21:58:40.717Z,18.63
2018-07-13T22:01:09.421Z,20.60
2018-07-13T22:03:38.174Z,19.40
2018-07-13T22:06:06.884Z,20.70
2018-07-13T22:08:35.619Z,19.93
2018-07-13T22:11:04.357Z,18.77
2018-07-13T22:13:33.067Z,19.57
2018-07-13T22:16:01.821Z,19.20
2018-07-13T22:18:30.555Z,18.20
2018-07-13T22:20:59.450Z,19.60
2018-07-13T22:23:28.305Z,18.47
2018-07-13T22:25:57.528Z,16.90
2018-07-13T22:28:26.469Z,17.10
2018-07-13T22:30:55.453Z,17.03
2018-07-13T22:33:24.176Z,18.90
2018-07-13T22:35:52.888Z,17.60
2018-07-13T22:38:21.644Z,19.10
2018-07-13T22:40:50.447Z,19.47
2018-07-13T22:43:19.175Z,19.07
2018-07-13T22:45:47.888Z,17.70
2018-07-13T22:48:16.629Z,16.90
2018-07-13T22:50:45.370Z,17.47
2018-07-13T22:53:14.150Z,16.10
2018-07-13T22:55:43.026Z,17.93
2018-07-13T22:58:11.734Z,16.83
2018-07-13T23:00:40.449Z,16.80
2018-07-13T23:03:09.167Z,17.20
2018-07-13T23:05:37.909Z,17.10
2018-07-13T23:08:06.609Z,18.47
2018-07-13T23:10:35.353Z,17.97
2018-07-13T23:13:04.085Z,17.90
2018-07-13T23:15:32.885Z,17.20
2018-07-13T23:18:01.683Z,16.50
2018-07-13T23:20:30.396Z,16.40
2018-07-13T23:22:59.101Z,18.63
2018-07-13T23:25:27.814Z,16.03
2018-07-13T23:27:56.515Z,18.80
2018-07-13T23:30:25.262Z,17.83
2018-07-13T23:32:53.970Z,14.33
2018-07-13T23:35:22.675Z,14.77
2018-07-13T23:37:51.457Z,16.30
2018-07-13T23:40:20.177Z,14.77
2018-07-13T23:42:49.159Z,13.43
2018-07-13T23:45:17.893Z,13.70
2018-07-13T23:47:46.604Z,15.13
2018-07-13T23:50:15.333Z,13.00
2018-07-13T23:52:44.049Z,16.17
2018-07-13T23:55:12.813Z,16.03
2018-07-13T23:57:41.610Z,14.97
